Latest Weather Observations for Gladstone

IDQ60801

Issued at 9:32 pm EST Friday 12 February 2016 (issued every 30 minutes, with the page automatically refreshed every 10 minutes)

About weather observations | Map of weather stations | Latest weather observations for QLD | Other Formats
Station Details ID: 039123 Name: GLADSTONE RADAR Lat: -23.86 Lon: 151.26 Height: 74.5 m
Data from the previous 72 hours. | See also: Recent months at Gladstone
Date/Time
EST
Temp
°C
App
Temp
°C
Dew
Point
Rel
Hum
%
Delta-T
°C
Wind Press
QNH
hPa
Press
MSL
hPa
Rain
since 9 am
mm
Dir
 
Spd
km/h
Gust
km/h
Spd
kts
Gust
kts
12/09:30pm 25.2 24.5 18.2 65 4.4 SE 19 28 10 15 1010.8 1010.3 0.0
12/09:00pm 25.5 24.9 18.4 65 4.5 SE 19 32 10 17 1010.5 1010.0 0.0
12/08:30pm 25.7 24.5 19.3 67 4.1 ESE 24 41 13 22 1010.1 1009.6 0.0
12/08:00pm 25.9 24.6 19.8 69 4.0 ESE 26 37 14 20 1010.1 1009.6 0.0
12/07:30pm 26.1 23.4 19.7 68 4.2 ESE 33 46 18 25 1009.6 1009.1 0.0
12/07:00pm 26.4 23.8 20.0 68 4.2 ESE 33 44 18 24 1009.3 1008.8 0.0
12/06:39pm 26.5 25.4 21.0 72 3.6 E 28 48 15 26 1009.2 1008.7 0.0
12/06:30pm 26.5 25.0 21.0 72 3.6 E 30 41 16 22 1009.1 1008.6 0.0
12/06:00pm 26.8 24.7 20.6 69 4.1 E 32 44 17 24 1008.8 1008.3 0.0
12/05:30pm 27.4 24.7 20.5 66 4.5 E 35 54 19 29 1008.4 1007.9 0.0
12/05:28pm 27.5 24.9 20.6 66 4.6 E 35 54 19 29 1008.3 1007.8 0.0
12/05:00pm 28.2 25.3 20.0 61 5.4 E 35 46 19 25 1008.1 1007.6 0.0
12/04:30pm 28.9 26.3 19.8 58 6.0 E 33 46 18 25 1008.0 1007.5 0.0
12/04:00pm 29.0 26.0 19.9 58 6.0 E 35 48 19 26 1007.9 1007.4 0.0
12/03:30pm 28.4 25.9 18.8 56 6.2 E 30 43 16 23 1007.9 1007.4 0.0
12/03:00pm 29.3 27.0 19.3 55 6.5 E 30 44 16 24 1008.0 1007.5 0.0
12/02:30pm 29.4 27.4 19.1 54 6.7 E 28 43 15 23 1008.3 1007.8 0.0
12/02:00pm 30.5 28.1 19.2 51 7.4 E 30 41 16 22 1008.5 1008.0 0.0
12/01:30pm 29.7 27.5 18.8 52 7.1 E 28 39 15 21 1008.7 1008.2 0.0
12/01:00pm 30.8 29.9 19.8 52 7.3 E 24 39 13 21 1009.1 1008.6 0.0
12/12:30pm 31.3 31.0 19.6 49 7.7 E 20 30 11 16 1009.5 1009.0 0.0
12/12:00pm 31.0 30.6 19.4 50 7.6 E 20 32 11 17 1009.9 1009.4 0.0
12/11:30am 28.4 27.8 18.8 56 6.2 E 20 32 11 17 1010.2 1009.7 0.0
12/11:00am 29.2 29.0 18.6 52 6.8 ESE 17 28 9 15 1010.5 1010.0 0.0
12/10:30am 29.5 28.3 19.2 54 6.7 ESE 24 39 13 21 1010.7 1010.2 0.0
12/10:00am 28.6 27.5 17.8 52 6.9 SE 20 33 11 18 1011.0 1010.5 0.0
12/09:30am 28.4 26.7 18.2 54 6.5 SE 24 41 13 22 1011.2 1010.7 0.0
12/09:00am 27.8 26.8 18.8 58 5.8 SE 22 39 12 21 1011.3 1010.8 0.0
12/08:30am 26.5 24.4 18.1 60 5.3 SE 26 41 14 22 1011.3 1010.8 0.0
12/08:00am 26.1 25.3 19.2 65 4.4 SE 22 37 12 20 1011.4 1010.9 0.0
12/07:30am 25.3 24.9 19.0 68 4.0 SE 19 32 10 17 1011.2 1010.7 0.0
12/07:00am 24.1 23.8 19.2 74 3.1 SE 19 28 10 15 1011.1 1010.6 0.0
12/06:30am 23.3 23.9 19.5 79 2.4 SSE 15 30 8 16 1011.0 1010.5 0.0
12/06:00am 22.4 22.9 19.2 82 2.0 SSE 15 26 8 14 1010.5 1010.0 0.0
12/05:30am 22.4 22.1 19.2 82 2.0 SSE 19 28 10 15 1010.3 1009.8 0.0
12/05:00am 22.6 22.1 19.2 81 2.2 SSE 20 39 11 21 1010.1 1009.6 0.0
12/04:30am 22.6 22.3 19.2 81 2.2 SSE 19 35 10 19 1010.0 1009.5 0.0
12/04:00am 22.8 22.5 19.2 80 2.3 SE 19 30 10 16 1009.9 1009.4 0.0
12/03:30am 23.0 22.5 19.2 79 2.4 SSE 20 39 11 21 1009.7 1009.2 0.0
12/03:00am 23.1 22.3 19.3 79 2.4 SSE 22 33 12 18 1009.7 1009.2 0.0
12/02:30am 23.1 21.8 19.1 78 2.5 SSE 24 37 13 20 1009.7 1009.2 0.0
12/02:00am 23.1 22.6 19.1 78 2.6 SSE 20 35 11 19 1010.1 1009.6 0.0
12/01:30am 23.3 22.8 19.0 77 2.7 SSE 20 35 11 19 1010.4 1009.9 0.0
12/01:00am 23.4 22.9 19.1 77 2.7 SSE 20 32 11 17 1010.6 1010.1 0.0
12/12:30am 23.6 23.1 18.7 74 3.1 SSE 19 28 10 15 1010.9 1010.4 0.0
12/12:00am 23.7 24.0 18.8 74 3.1 SSE 15 24 8 13 1011.1 1010.6 0.0
 
Date/Time
EST
Temp
°C
App
Temp
°C
Dew
Point
Rel
Hum
%
Delta-T
°C
Wind Press
QNH
hPa
Press
MSL
hPa
Rain
since 9 am
mm
Dir
 
Spd
km/h
Gust
km/h
Spd
kts
Gust
kts
11/11:30pm 24.1 23.7 19.0 73 3.3 SSE 19 28 10 15 1011.2 1010.7 0.0
11/11:00pm 24.3 24.3 18.9 72 3.4 SSE 17 28 9 15 1011.3 1010.8 0.0
11/10:30pm 24.5 24.5 18.9 71 3.6 SSE 17 28 9 15 1011.3 1010.8 0.0
11/10:00pm 24.9 24.4 18.6 68 4.0 SE 19 30 10 16 1011.3 1010.8 0.0
11/09:30pm 25.2 23.6 18.4 66 4.3 ESE 24 41 13 22 1011.2 1010.7 0.0
11/09:00pm 25.3 24.8 19.2 69 3.9 ESE 20 33 11 18 1011.1 1010.6 0.0
11/08:30pm 25.7 23.2 18.9 66 4.4 ESE 30 44 16 24 1010.7 1010.2 0.0
11/08:00pm 25.9 24.0 19.3 67 4.3 ESE 28 37 15 20 1010.5 1010.0 0.0
11/07:30pm 26.2 24.0 19.6 67 4.3 ESE 30 44 16 24 1010.1 1009.6 0.0
11/07:00pm 26.3 24.3 19.9 68 4.2 ESE 30 44 16 24 1009.8 1009.3 0.0
11/06:30pm 26.5 25.4 20.3 68 4.1 E 26 37 14 20 1009.7 1009.2 0.0
11/06:00pm 26.8 24.6 20.4 68 4.2 E 32 46 17 25 1009.1 1008.6 0.0
11/05:30pm 27.0 24.2 20.3 66 4.4 E 35 44 19 24 1008.7 1008.2 0.0
11/05:07pm 27.3 24.9 19.9 64 4.8 E 32 50 17 27 1008.6 1008.1 0.0
11/05:00pm 27.3 24.3 19.9 64 4.8 E 35 46 19 25 1008.6 1008.1 0.0
11/04:30pm 28.3 26.0 20.1 61 5.4 E 32 46 17 25 1008.3 1007.8 0.0
11/04:25pm 28.9 27.0 20.9 62 5.3 E 32 50 17 27 1008.3 1007.8 0.0
11/04:00pm 28.9 26.6 20.1 59 5.8 E 32 46 17 25 1008.1 1007.6 0.0
11/03:43pm 28.1 25.8 20.1 62 5.3 E 32 52 17 28 1007.9 1007.4 0.0
11/03:30pm 28.8 26.4 20.0 59 5.8 E 32 46 17 25 1008.0 1007.5 0.0
11/03:00pm 29.3 27.0 20.5 59 5.8 E 33 43 18 23 1008.1 1007.6 0.0
11/02:30pm 30.3 28.3 20.0 54 6.8 E 30 39 16 21 1008.4 1007.9 0.0
11/02:00pm 31.6 31.1 20.8 52 7.2 E 24 35 13 19 1008.8 1008.3 0.0
11/01:30pm 30.6 28.9 19.0 50 7.6 E 26 39 14 21 1009.0 1008.5 0.0
11/01:00pm 31.4 30.4 20.4 52 7.3 E 26 35 14 19 1009.3 1008.8 0.0
11/12:30pm 31.4 30.9 20.7 53 7.2 E 24 35 13 19 1009.6 1009.1 0.0
11/12:00pm 31.7 31.5 20.6 51 7.4 E 22 35 12 19 1009.9 1009.4 0.0
11/11:30am 29.9 29.1 19.3 53 6.9 ESE 22 33 12 18 1010.4 1009.9 0.0
11/11:00am 29.5 29.0 18.6 52 7.0 ESE 19 32 10 17 1011.0 1010.5 0.0
11/10:30am 29.8 29.1 18.6 51 7.2 SE 20 39 11 21 1011.1 1010.6 0.0
11/10:00am 29.1 26.8 18.5 52 6.8 ESE 28 39 15 21 1010.8 1010.3 0.0
11/09:30am 27.9 26.3 18.3 56 6.1 SSE 24 33 13 18 1011.0 1010.5 0.0
11/09:00am 27.3 25.6 18.0 56 5.9 SE 24 41 13 22 1011.1 1010.6 0.0
11/08:30am 26.4 25.9 19.0 63 4.8 SSE 20 35 11 19 1011.2 1010.7 0.0
11/08:00am 25.3 24.5 18.5 66 4.3 SSE 20 33 11 18 1011.0 1010.5 0.0
11/07:30am 25.0 24.5 18.7 68 4.0 SSE 19 35 10 19 1011.1 1010.6 0.0
11/07:00am 23.5 22.9 18.8 75 3.0 SSE 20 35 11 19 1010.9 1010.4 0.0
11/06:30am 23.0 23.2 19.4 80 2.3 SE 17 28 9 15 1010.6 1010.1 0.0
11/06:00am 22.1 22.2 19.1 83 1.9 SE 17 28 9 15 1010.4 1009.9 0.0
11/05:30am 22.0 21.5 19.0 83 1.9 SSE 20 30 11 16 1010.1 1009.6 0.0
11/05:00am 22.0 21.5 19.0 83 1.9 SSE 20 33 11 18 1009.9 1009.4 0.0
11/04:30am 22.1 21.5 18.9 82 2.0 SSE 20 32 11 17 1009.8 1009.3 0.0
11/04:00am 22.2 22.2 19.0 82 2.0 SSE 17 24 9 13 1009.8 1009.3 0.0
11/03:30am 22.3 22.4 19.1 82 2.0 SSE 17 30 9 16 1009.6 1009.1 0.0
11/03:00am 22.4 22.1 19.2 82 2.0 SSE 19 32 10 17 1009.6 1009.1 0.0
11/02:30am 22.6 22.4 19.4 82 2.0 SSE 19 28 10 15 1009.8 1009.3 0.0
11/02:00am 22.7 22.9 19.3 81 2.2 SSE 17 30 9 16 1009.7 1009.2 0.0
11/01:30am 22.9 22.8 19.5 81 2.2 SSE 19 32 10 17 1009.8 1009.3 0.0
11/01:00am 23.0 22.5 19.2 79 2.4 SSE 20 33 11 18 1010.1 1009.6 0.0
11/12:30am 23.0 22.5 18.7 77 2.7 SSE 19 28 10 15 1010.5 1010.0 0.0
11/12:00am 23.2 23.2 18.9 77 2.7 SSE 17 26 9 14 1010.9 1010.4 0.0
 
Date/Time
EST
Temp
°C
App
Temp
°C
Dew
Point
Rel
Hum
%
Delta-T
°C
Wind Press
QNH
hPa
Press
MSL
hPa
Rain
since 9 am
mm
Dir
 
Spd
km/h
Gust
km/h
Spd
kts
Gust
kts
10/11:30pm 23.3 23.7 19.0 77 2.7 SSE 15 22 8 12 1011.2 1010.7 0.0
10/11:00pm 23.7 24.1 19.0 75 3.0 SSE 15 24 8 13 1011.5 1011.0 0.0
10/10:30pm 24.0 24.1 19.1 74 3.1 SE 17 26 9 14 1011.6 1011.1 0.0
10/10:00pm 24.2 24.9 19.7 76 2.9 SE 15 22 8 12 1011.8 1011.3 0.0
10/09:30pm 24.5 24.6 20.0 76 2.9 ESE 19 30 10 16 1011.8 1011.3 0.0
10/09:00pm 24.7 25.0 20.4 77 2.8 ESE 19 30 10 16 1011.8 1011.3 0.0
10/08:30pm 25.0 23.9 20.3 75 3.1 ESE 26 41 14 22 1011.4 1010.9 0.0
10/08:00pm 25.4 24.8 20.6 75 3.2 ESE 24 41 13 22 1011.2 1010.7 0.0
10/07:30pm 25.5 24.4 21.0 76 3.0 ESE 28 43 15 23 1010.7 1010.2 0.0
10/07:00pm 25.6 24.5 20.2 72 3.5 ESE 26 37 14 20 1010.6 1010.1 0.0
10/06:30pm 25.7 25.0 19.6 69 3.9 ESE 22 32 12 17 1010.1 1009.6 0.0
10/06:00pm 26.8 24.5 20.2 67 4.3 ESE 32 46 17 25 1009.6 1009.1 0.0
10/05:30pm 27.1 24.4 19.7 64 4.8 E 33 48 18 26 1009.4 1008.9 0.0
10/05:12pm 27.5 25.9 20.8 67 4.4 E 30 48 16 26 1009.2 1008.7 0.0
10/05:00pm 27.6 26.6 21.2 68 4.3 E 28 39 15 21 1009.3 1008.8 0.0
10/04:30pm 27.7 26.5 20.8 66 4.6 E 28 43 15 23 1009.0 1008.5 0.0
10/04:00pm 28.8 26.4 20.0 59 5.8 E 32 46 17 25 1008.9 1008.4 0.0
10/03:30pm 29.2 28.4 20.9 61 5.5 E 26 37 14 20 1008.9 1008.4 0.0
10/03:00pm 30.1 29.9 20.6 56 6.3 ENE 22 32 12 17 1009.0 1008.5 0.0
10/02:30pm 30.7 31.5 20.6 54 6.7 ENE 17 24 9 13 1009.3 1008.8 0.0
10/02:00pm 30.2 31.2 20.2 55 6.6 E 15 22 8 12 1009.7 1009.2 0.0
10/01:30pm 29.4 29.6 19.4 55 6.5 ESE 17 32 9 17 1010.0 1009.5 0.0
10/01:00pm 29.4 29.4 19.7 56 6.4 ESE 19 26 10 14 1010.6 1010.1 0.0
10/12:30pm 28.1 26.7 18.8 57 6.0 ESE 24 37 13 20 1011.1 1010.6 0.0
10/12:00pm 27.4 27.7 19.7 63 5.0 SE 17 32 9 17 1011.4 1010.9 0.0
10/11:30am 26.9 24.7 19.5 64 4.8 ESE 30 44 16 24 1011.5 1011.0 0.0
10/11:27am 27.1 25.1 19.2 62 5.1 ESE 28 44 15 24 1011.4 1010.9 0.0
10/11:00am 29.1 29.5 19.1 54 6.5 ESE 15 26 8 14 1011.4 1010.9 0.0
10/10:30am 28.5 28.0 17.7 52 6.9 SE 17 30 9 16 1011.6 1011.1 0.0
10/10:00am 29.4 28.9 19.1 54 6.7 SSE 20 35 11 19 1011.4 1010.9 0.0
10/09:30am 28.9 28.5 18.9 54 6.5 SE 19 33 10 18 1011.5 1011.0 0.0
10/09:00am 27.7 26.9 18.4 57 6.0 SE 20 35 11 19 1011.5 1011.0 0.0
10/08:30am 27.3 27.3 18.9 60 5.4 SSE 17 28 9 15 1011.9 1011.4 0.0
10/08:00am 25.0 24.3 18.2 66 4.3 SSE 19 35 10 19 1011.7 1011.2 0.0
10/07:30am 23.6 22.9 18.3 72 3.3 SSE 19 33 10 18 1011.5 1011.0 0.0
10/07:00am 23.6 22.9 18.7 74 3.1 SSE 20 33 11 18 1011.2 1010.7 0.0
10/06:30am 22.8 22.3 18.6 77 2.7 SSE 19 35 10 19 1011.2 1010.7 0.0
10/06:00am 22.2 21.5 18.2 78 2.5 SSE 19 32 10 17 1010.9 1010.4 0.0
10/05:30am 22.1 21.7 18.1 78 2.5 SSE 17 32 9 17 1010.6 1010.1 0.0
10/05:00am 22.1 21.2 18.1 78 2.5 SSE 20 30 11 16 1010.4 1009.9 0.0
10/04:30am 22.1 21.3 18.1 78 2.5 SSE 19 32 10 17 1010.2 1009.7 0.0
10/04:00am 22.2 21.9 18.2 78 2.5 SSE 17 28 9 15 1010.2 1009.7 0.0
10/03:30am 22.2 21.3 18.2 78 2.5 SSE 20 33 11 18 1010.0 1009.5 0.0
10/03:00am 22.4 21.1 18.2 77 2.6 SSE 22 35 12 19 1010.1 1009.6 0.0
10/02:30am 22.5 21.6 18.1 76 2.8 SSE 20 35 11 19 1010.3 1009.8 0.0
10/02:00am 22.5 20.7 17.8 75 2.9 SSE 24 35 13 19 1010.6 1010.1 0.0
10/01:30am 22.4 21.5 17.8 75 2.9 SSE 19 32 10 17 1010.8 1010.3 0.0
10/01:00am 22.6 21.6 17.5 73 3.2 SSE 19 28 10 15 1011.3 1010.8 0.0
10/12:30am 22.8 21.7 17.3 71 3.4 SSE 19 32 10 17 1011.7 1011.2 0.0
10/12:00am 23.1 21.7 17.1 69 3.7 SSE 20 33 11 18 1012.1 1011.6 0.0
 
Date/Time
EST
Temp
°C
App
Temp
°C
Dew
Point
Rel
Hum
%
Delta-T
°C
Wind Press
QNH
hPa
Press
MSL
hPa
Rain
since 9 am
mm
Dir
 
Spd
km/h
Gust
km/h
Spd
kts
Gust
kts
09/11:30pm 23.3 22.0 16.8 67 4.0 SE 19 28 10 15 1012.5 1012.0 0.0
09/11:00pm 23.6 22.3 16.9 66 4.1 SE 19 32 10 17 1012.9 1012.4 0.0
09/10:30pm 24.1 23.7 17.1 65 4.3 SE 15 28 8 15 1013.1 1012.6 0.0
09/10:00pm 24.6 22.2 17.3 64 4.5 SE 26 39 14 21 1013.2 1012.7 0.0

Other Formats:

Comma delimited format used in spreadsheet applications
http://www.bom.gov.au/fwo/IDQ60801/IDQ60801.94380.axf

JavaScript Object Notation format (JSON) in row-major order
http://www.bom.gov.au/fwo/IDQ60801/IDQ60801.94380.json